Time,TemperatureF,DewpointF,PressureIn,WindDirection,WindDirectionDegrees,WindSpeedMPH,WindSpeedGustMPH,Humidity,HourlyPrecipIn,Conditions,Clouds,dailyrainin,SoftwareType,DateUTC
2013-01-10 00:01:00,43.0,29.0,-100.00,SE,133,5.0,8.0,57,-99.99,,,-99.99,,2013-01-10 08:01:00,
2013-01-10 00:11:00,43.0,30.0,-100.00,SE,135,4.0,7.0,59,-99.99,,,-99.99,,2013-01-10 08:11:00,
2013-01-10 00:22:00,43.0,29.0,-100.00,SE,133,6.0,10.0,58,-99.99,,,-99.99,,2013-01-10 08:22:00,
2013-01-10 00:32:00,41.0,29.0,-100.00,SE,141,9.0,12.0,63,-99.99,,,-99.99,,2013-01-10 08:32:00,
2013-01-10 00:42:00,41.0,29.0,-100.00,SE,141,9.0,12.0,61,-99.99,,,-99.99,,2013-01-10 08:42:00,
2013-01-10 00:52:00,41.0,29.0,-100.00,SSE,148,8.0,13.0,62,-99.99,,,-99.99,,2013-01-10 08:52:00,
2013-01-10 01:02:00,41.0,29.0,-100.00,SE,144,9.0,12.0,61,-99.99,,,-99.99,,2013-01-10 09:02:00,
2013-01-10 01:12:00,42.0,29.0,-100.00,SE,141,9.0,11.0,59,-99.99,,,-99.99,,2013-01-10 09:12:00,
2013-01-10 01:22:00,43.0,28.0,-100.00,SE,138,11.0,15.0,55,-99.99,,,-99.99,,2013-01-10 09:22:00,
2013-01-10 01:32:00,45.0,28.0,-100.00,SE,144,12.0,16.0,51,-99.99,,,-99.99,,2013-01-10 09:32:00,
2013-01-10 01:42:00,45.0,27.0,-100.00,SE,146,9.0,12.0,50,-99.99,,,-99.99,,2013-01-10 09:42:00,
2013-01-10 01:50:00,41.0,37.0,-100.00,NW,315,11.0,16.0,87,-99.99,,,-99.99,,2013-01-10 09:50:00,
2013-01-10 01:52:00,45.0,27.0,-100.00,SSE,157,6.0,12.0,49,-99.99,,,-99.99,,2013-01-10 09:52:00,
2013-01-10 02:02:00,48.0,27.0,-100.00,SSW,208,6.0,11.0,43,-99.99,,,-99.99,,2013-01-10 10:02:00,
2013-01-10 02:11:00,46.0,29.0,-100.00,West,272,8.0,14.0,51,-99.99,,,-99.99,,2013-01-10 10:11:00,
2013-01-10 02:22:00,46.0,29.0,-100.00,West,272,8.0,14.0,51,-99.99,,,-99.99,,2013-01-10 10:22:00,
2013-01-10 02:32:00,41.0,37.0,-100.00,NW,315,11.0,16.0,87,-99.99,,,-99.99,,2013-01-10 10:32:00,
2013-01-10 02:42:00,41.0,37.0,-100.00,NW,315,11.0,16.0,87,-99.99,,,-99.99,,2013-01-10 10:42:00,
2013-01-10 04:40:00,42.0,39.0,-100.00,SSW,203,6.0,12.0,90,-99.99,,,-99.99,,2013-01-10 12:40:00,
2013-01-10 04:42:00,41.0,39.0,-100.00,SSW,205,7.0,11.0,92,-99.99,,,-99.99,,2013-01-10 12:42:00,
2013-01-10 04:52:00,41.0,39.0,-100.00,SSW,205,7.0,11.0,92,-99.99,,,-99.99,,2013-01-10 12:52:00,
2013-01-10 05:02:00,41.0,39.0,-100.00,SW,217,5.0,10.0,91,-99.99,,,-99.99,,2013-01-10 13:02:00,
2013-01-10 05:12:00,42.0,39.0,-100.00,SSW,203,6.0,12.0,90,-99.99,,,-99.99,,2013-01-10 13:12:00,
2013-01-10 05:22:00,42.0,39.0,-100.00,SSW,203,6.0,12.0,90,-99.99,,,-99.99,,2013-01-10 13:22:00,
2013-01-10 05:32:00,42.0,39.0,-100.00,SSW,203,6.0,12.0,90,-99.99,,,-99.99,,2013-01-10 13:32:00,
2013-01-10 06:10:00,41.0,40.0,-100.00,WSW,242,8.0,14.0,95,-99.99,,,-99.99,,2013-01-10 14:10:00,
2013-01-10 06:12:00,41.0,40.0,-100.00,South,191,8.0,13.0,95,-99.99,,,-99.99,,2013-01-10 14:12:00,
2013-01-10 06:22:00,41.0,40.0,-100.00,South,191,8.0,13.0,95,-99.99,,,-99.99,,2013-01-10 14:22:00,
2013-01-10 06:32:00,41.0,40.0,-100.00,SW,217,8.0,17.0,95,-99.99,,,-99.99,,2013-01-10 14:32:00,
2013-01-10 06:43:00,41.0,40.0,-100.00,WSW,242,8.0,14.0,95,-99.99,,,-99.99,,2013-01-10 14:43:00,
2013-01-10 06:52:00,41.0,40.0,-100.00,WSW,242,8.0,14.0,95,-99.99,,,-99.99,,2013-01-10 14:52:00,
2013-01-10 07:02:00,41.0,40.0,-100.00,WSW,242,8.0,14.0,95,-99.99,,,-99.99,,2013-01-10 15:02:00,
2013-01-10 15:30:00,37.0,27.0,-100.00,WNW,283,23.0,34.0,68,-99.99,,,-99.99,,2013-01-10 23:30:00,
2013-01-10 16:02:00,37.0,27.0,-100.00,WNW,283,23.0,34.0,68,-99.99,,,-99.99,,2013-01-11 00:02:00,
2013-01-10 16:12:00,37.0,27.0,-100.00,WNW,283,23.0,34.0,68,-99.99,,,-99.99,,2013-01-11 00:12:00,
2013-01-10 16:20:00,36.0,30.0,-100.00,WNW,286,23.0,31.0,79,-99.99,,,-99.99,,2013-01-11 00:20:00,
2013-01-10 16:23:00,37.0,27.0,-100.00,WNW,283,23.0,34.0,68,-99.99,,,-99.99,,2013-01-11 00:23:00,
2013-01-10 16:42:00,36.0,29.0,-100.00,WNW,284,23.0,32.0,77,-99.99,,,-99.99,,2013-01-11 00:42:00,
2013-01-10 16:52:00,36.0,30.0,-100.00,WNW,286,23.0,31.0,79,-99.99,,,-99.99,,2013-01-11 00:52:00,
2013-01-10 17:02:00,36.0,30.0,-100.00,WNW,286,23.0,31.0,79,-99.99,,,-99.99,,2013-01-11 01:02:00,
2013-01-10 17:12:00,36.0,30.0,-100.00,WNW,286,23.0,31.0,79,-99.99,,,-99.99,,2013-01-11 01:12:00,
2013-01-10 18:10:00,35.0,31.0,-100.00,WNW,283,17.0,30.0,85,-99.99,,,-99.99,,2013-01-11 02:10:00,
2013-01-10 18:33:00,35.0,31.0,-100.00,WNW,286,22.0,31.0,85,-99.99,,,-99.99,,2013-01-11 02:33:00,
2013-01-10 18:43:00,35.0,31.0,-100.00,WNW,283,17.0,30.0,85,-99.99,,,-99.99,,2013-01-11 02:43:00,
2013-01-10 18:53:00,35.0,31.0,-100.00,WNW,283,17.0,30.0,85,-99.99,,,-99.99,,2013-01-11 02:53:00,
2013-01-10 19:02:00,35.0,31.0,-100.00,WNW,283,17.0,30.0,85,-99.99,,,-99.99,,2013-01-11 03:02:00,